TSC252 CYUL-LEMG
Flight info
| Callsign | TSC252 |
|---|---|
| Flight time | N/A |
| Altitude | 33000 |
| Route | ANTEG DCT OBRON DCT MOBUB DCT EBMOS DCT BAREE DCT JANJO/M074F330 DCT 5650N DCT 5740N DCT 5830N DCT 5820N DCT SUNOT/N0429F330 DCT KESIX DCT OSBOX DCT KER/M074F330 DCT TULTA/N0426F330 DCT KORUL DCT VES DCT OMESI DCT VETAN DCT ZMR DCT AVILA DCT NVS DCT TLD DCT DOPEN DCT MONTO DCT CRISA N864 VULPE |
| Aircraft | A21N/M-SDE2E3FGHIRWXY/LB1 |
Departure
| Time | N/A |
|---|---|
| Airport | Montreal / Pierre Elliott Trudeau International Airport (CYUL) |
Arrival
| Time | 2026-05-07 15:31 |
|---|---|
| Airport | Málaga-Costa del Sol Airport (LEMG) |
| Time | Latitude | Longitude | Altitude | Speed | Heading |
|---|---|---|---|---|---|
| 2026-05-07 15:13 | 37.63374 | -4.75396 | 21494 ft | 394 kts | 170° |
| 2026-05-07 15:13 | 37.60741 | -4.74469 | 20935 ft | 391 kts | 170° |
| 2026-05-07 15:14 | 37.58091 | -4.73547 | 20462 ft | 407 kts | 170° |
| 2026-05-07 15:14 | 37.55255 | -4.72572 | 20162 ft | 437 kts | 169° |
| 2026-05-07 15:14 | 37.52274 | -4.71534 | 19887 ft | 446 kts | 169° |
| 2026-05-07 15:14 | 37.49310 | -4.70493 | 19299 ft | 439 kts | 168° |
| 2026-05-07 15:15 | 37.46400 | -4.69474 | 18849 ft | 427 kts | 168° |
| 2026-05-07 15:15 | 37.43571 | -4.68486 | 18402 ft | 417 kts | 168° |
| 2026-05-07 15:15 | 37.40796 | -4.67525 | 17693 ft | 410 kts | 168° |
| 2026-05-07 15:15 | 37.38082 | -4.66499 | 16739 ft | 406 kts | 161° |
| 2026-05-07 15:16 | 37.35597 | -4.64833 | 16017 ft | 403 kts | 152° |
| 2026-05-07 15:16 | 37.33213 | -4.63032 | 15441 ft | 397 kts | 151° |
| 2026-05-07 15:16 | 37.30860 | -4.61267 | 14877 ft | 391 kts | 151° |
| 2026-05-07 15:16 | 37.28534 | -4.59542 | 14335 ft | 385 kts | 151° |
| 2026-05-07 15:17 | 37.26118 | -4.58179 | 13773 ft | 377 kts | 166° |
| 2026-05-07 15:17 | 37.23589 | -4.57814 | 13327 ft | 369 kts | 182° |
| 2026-05-07 15:17 | 37.21032 | -4.57912 | 13009 ft | 366 kts | 184° |
| 2026-05-07 15:17 | 37.18493 | -4.58006 | 12725 ft | 364 kts | 183° |
| 2026-05-07 15:18 | 37.15971 | -4.58048 | 12452 ft | 362 kts | 182° |
| 2026-05-07 15:18 | 37.13455 | -4.58058 | 12189 ft | 361 kts | 182° |
| 2026-05-07 15:18 | 37.10983 | -4.58355 | 11822 ft | 352 kts | 196° |
| 2026-05-07 15:18 | 37.08784 | -4.59503 | 11515 ft | 335 kts | 213° |
| 2026-05-07 15:19 | 37.07047 | -4.61291 | 11195 ft | 313 kts | 230° |
| 2026-05-07 15:19 | 37.05855 | -4.63445 | 10913 ft | 292 kts | 245° |
| 2026-05-07 15:19 | 37.05201 | -4.65755 | 10716 ft | 273 kts | 259° |
| 2026-05-07 15:19 | 37.05012 | -4.68046 | 10473 ft | 257 kts | 272° |
| 2026-05-07 15:20 | 37.05206 | -4.70204 | 10242 ft | 243 kts | 280° |
| 2026-05-07 15:20 | 37.05502 | -4.72238 | 9935 ft | 233 kts | 280° |
| 2026-05-07 15:20 | 37.05804 | -4.74217 | 9468 ft | 229 kts | 280° |
| 2026-05-07 15:20 | 37.06046 | -4.76177 | 8926 ft | 227 kts | 272° |
| 2026-05-07 15:21 | 37.05775 | -4.78093 | 8359 ft | 225 kts | 244° |
| 2026-05-07 15:21 | 37.04791 | -4.79593 | 7809 ft | 227 kts | 214° |
| 2026-05-07 15:21 | 37.03294 | -4.80236 | 7330 ft | 232 kts | 189° |
| 2026-05-07 15:21 | 37.01668 | -4.80219 | 7091 ft | 235 kts | 181° |
| 2026-05-07 15:22 | 37.00033 | -4.80117 | 7015 ft | 235 kts | 180° |
| 2026-05-07 15:22 | 36.98397 | -4.80044 | 6961 ft | 235 kts | 181° |
| 2026-05-07 15:22 | 36.96790 | -4.79995 | 6767 ft | 230 kts | 182° |
| 2026-05-07 15:22 | 36.95231 | -4.79958 | 6538 ft | 222 kts | 184° |
| 2026-05-07 15:23 | 36.93690 | -4.79916 | 6269 ft | 220 kts | 179° |
| 2026-05-07 15:23 | 36.92191 | -4.79502 | 5957 ft | 220 kts | 163° |
| 2026-05-07 15:23 | 36.90786 | -4.78870 | 5773 ft | 209 kts | 162° |
| 2026-05-07 15:23 | 36.89459 | -4.78267 | 5576 ft | 198 kts | 161° |
| 2026-05-07 15:24 | 36.88173 | -4.77690 | 5287 ft | 196 kts | 163° |
| 2026-05-07 15:24 | 36.86922 | -4.77052 | 4973 ft | 195 kts | 149° |
| 2026-05-07 15:24 | 36.85934 | -4.75885 | 4821 ft | 197 kts | 133° |
| 2026-05-07 15:24 | 36.85038 | -4.74601 | 4701 ft | 195 kts | 133° |
| 2026-05-07 15:25 | 36.84143 | -4.73330 | 4752 ft | 195 kts | 133° |
| 2026-05-07 15:25 | 36.83251 | -4.72059 | 4651 ft | 191 kts | 133° |
| 2026-05-07 15:25 | 36.82395 | -4.70853 | 4437 ft | 182 kts | 133° |
| 2026-05-07 15:25 | 36.81564 | -4.69682 | 4178 ft | 178 kts | 134° |
| 2026-05-07 15:26 | 36.80746 | -4.68531 | 3918 ft | 176 kts | 134° |
| 2026-05-07 15:26 | 36.79934 | -4.67389 | 3665 ft | 176 kts | 134° |
| 2026-05-07 15:26 | 36.79132 | -4.66259 | 3420 ft | 172 kts | 135° |
| 2026-05-07 15:26 | 36.78340 | -4.65147 | 3176 ft | 172 kts | 134° |
| 2026-05-07 15:27 | 36.77544 | -4.64027 | 2922 ft | 173 kts | 134° |
| 2026-05-07 15:27 | 36.76749 | -4.62909 | 2690 ft | 171 kts | 134° |
| 2026-05-07 15:27 | 36.75967 | -4.61811 | 2449 ft | 169 kts | 135° |
| 2026-05-07 15:27 | 36.75202 | -4.60736 | 2209 ft | 164 kts | 135° |
| 2026-05-07 15:28 | 36.74485 | -4.59727 | 1976 ft | 147 kts | 135° |
| 2026-05-07 15:28 | 36.73849 | -4.58834 | 1766 ft | 130 kts | 136° |
| 2026-05-07 15:28 | 36.73254 | -4.57999 | 1596 ft | 128 kts | 136° |
| 2026-05-07 15:28 | 36.72656 | -4.57160 | 1382 ft | 135 kts | 134° |
| 2026-05-07 15:29 | 36.72028 | -4.56278 | 1201 ft | 136 kts | 133° |
| 2026-05-07 15:29 | 36.71403 | -4.55402 | 1020 ft | 134 kts | 133° |
| 2026-05-07 15:29 | 36.70789 | -4.54540 | 828 ft | 132 kts | 131° |
| 2026-05-07 15:29 | 36.70178 | -4.53682 | 634 ft | 132 kts | 130° |
| 2026-05-07 15:30 | 36.69573 | -4.52828 | 446 ft | 130 kts | 129° |
| 2026-05-07 15:30 | 36.68977 | -4.51991 | 261 ft | 129 kts | 130° |
| 2026-05-07 15:30 | 36.68379 | -4.51154 | 87 ft | 129 kts | 129° |
| 2026-05-07 15:30 | 36.67816 | -4.50363 | 60 ft | 111 kts | 133° |
| 2026-05-07 15:31 | 36.67410 | -4.49795 | 54 ft | 63 kts | 132° |
| 2026-05-07 15:31 | 36.67189 | -4.49485 | 52 ft | 45 kts | 127° |
| 2026-05-07 15:31 | 36.67110 | -4.49237 | 50 ft | 2 kts | 100° |
| 2026-05-07 15:31 | 36.67107 | -4.49216 | 50 ft | 4 kts | 100° |
| 2026-05-07 15:32 | 36.67101 | -4.49173 | 48 ft | 6 kts | 99° |
| 2026-05-07 15:32 | 36.67105 | -4.49114 | 44 ft | 8 kts | 72° |
| 2026-05-07 15:32 | 36.67132 | -4.49065 | 47 ft | 4 kts | 39° |
| 2026-05-07 15:32 | 36.67167 | -4.49043 | 47 ft | 7 kts | 6° |
| 2026-05-07 15:33 | 36.67224 | -4.49034 | 47 ft | 9 kts | 9° |
| 2026-05-07 15:33 | 36.67265 | -4.49026 | 47 ft | 0 kts | 9° |
| 2026-05-07 15:33 | 36.67259 | -4.49027 | 46 ft | 0 kts | 9° |
| 2026-05-07 15:33 | 36.67262 | -4.49027 | 47 ft | 0 kts | 9° |